Terminal Aerodrome Forecast
Issued by NWS Duluth, MN

Home | Current Version | Previous Version | Text Only | Print | Product List | Glossary On
Versions: 1 2 3 4 5 6 7 8 9 10 11 12 13 14 15 16 17 18 19 20 21 22 23 24 25 26 27 28 29 30 31 32 33 34 35 36 37 38 39
000
FTUS43 KDLH 210100 AAA
TAFDLH
TAF AMD
KDLH 210104Z 2101/2124 30010G20KT 4SM -RA BR BKN040
     FM210300 30010KT 5SM BR VCSH OVC030
     FM210600 33008KT P6SM OVC015
     FM210900 33007KT 6SM BR OVC010
     FM211600 33009KT P6SM BKN018
     FM211800 33018KT P6SM SCT020=

USA.gov is the U.S. government's official web portal to all federal, state and local government web resources and services.